TFM - Tactical Decision Aid (Experimental) INFO Settings
ID: Runway Winds: CIG/VIS Threshold: METAR Board:

KAGS - Augusta Rgnl

Updated at: 1334 UTC 23 Jun 2018
Latest TAF at: 1135 UTC 23 Jun 2018

TAF Board

Time1253Z23/14Z23/15Z23/16Z23/17Z23/18Z23/19Z23/20Z23/21Z23/22Z23/23Z24/00Z24/01Z24/02Z
TypeOBSPRVLPRVLPRVLPRVLPRVLPRVLPRVLPRVLPRVLPRVLPRVLPRVLPRVL
VIS10>6>6>6>6>6>6>6>6>6>6>6>6>6
CIG--100100100--------------100100100
CoverCLRBKNBKNBKNSCTSCTSCTSCTSCTSCTSCTBKNBKNBKN
FltCatVFRVFRVFRVFRVFRVFRVFRVFRVFRVFRVFRVFRVFRVFR
WX----------------------------
WDir250240240240250250250250250250250240240240
WSpd788810101010101010555
WGst--------19191919191919------
TAF
KAGS 231135Z 2312/2412 24008KT P6SM SCT030 BKN100
  FM231700 25010G19KT P6SM SCT050
  FM240000 24005KT P6SM SCT040 BKN100


METAR
KAGS 231253Z 25007KT 10SM CLR 26/24 A2992 RMK AO2 SLP131 T02560239 $

TAF/METAR Board Legend

Potential Impact
  None Marginal Slight Moderate High
Visibility (sm) >5 3≤X≤5 2≤X<3 0.5≤X<2 <0.5
Ceiling (100 ft) >30 10≤X≤30 7≤X<10 2≤X<7 <2
Wind Speed (kt) <10 10≤X<20 20≤X<30 ≥30
Wind Gust (kt) <15 15≤X<25 25≤X<35 ≥35
Weather No Wx Reported VCTS -TS,-FZRA TS,FZRA +TS,+FZRA